createdAt,value
2022-07-29T00:02:26.582Z,44.04
2022-07-29T00:04:53.196Z,44.31
2022-07-29T00:07:39.651Z,44.34
2022-07-29T00:10:26.108Z,44.18
2022-07-29T00:13:12.583Z,44.81
2022-07-29T00:16:04.795Z,45.11
2022-07-29T00:18:51.628Z,44.88
2022-07-29T00:21:38.108Z,45.61
2022-07-29T00:24:05.119Z,46.01
2022-07-29T00:26:33.404Z,45.84
2022-07-29T00:29:32.000Z,47.26
2022-07-29T00:31:47.385Z,46.74
2022-07-29T00:34:32.763Z,46.50
2022-07-29T00:36:59.260Z,46.80
2022-07-29T00:39:25.836Z,46.55
2022-07-29T00:41:54.650Z,46.61
2022-07-29T00:44:21.264Z,46.79
2022-07-29T00:46:47.873Z,46.72
2022-07-29T00:49:14.645Z,46.99
2022-07-29T00:51:41.829Z,47.92
2022-07-29T00:54:08.521Z,48.07
2022-07-29T00:56:34.998Z,48.39
2022-07-29T00:59:01.914Z,48.37
2022-07-29T01:01:29.422Z,48.74
2022-07-29T01:03:56.119Z,49.28
2022-07-29T01:06:23.438Z,49.32
2022-07-29T01:08:50.275Z,50.01
2022-07-29T01:11:18.088Z,49.50
2022-07-29T01:13:46.781Z,49.99
2022-07-29T01:16:24.723Z,49.90
2022-07-29T01:18:57.720Z,50.47
2022-07-29T01:21:52.834Z,50.72
2022-07-29T01:24:40.703Z,51.07
2022-07-29T01:27:35.172Z,51.17
2022-07-29T01:30:05.211Z,51.71
2022-07-29T01:32:38.042Z,51.86
2022-07-29T01:35:21.428Z,52.42
2022-07-29T01:37:52.911Z,53.14
2022-07-29T01:40:32.051Z,53.23
2022-07-29T01:43:04.191Z,53.65
2022-07-29T01:45:41.869Z,53.53
2022-07-29T01:48:17.591Z,54.01
2022-07-29T01:50:57.421Z,54.25
2022-07-29T01:53:37.859Z,55.46
2022-07-29T01:56:07.305Z,56.12
2022-07-29T01:58:36.559Z,56.67
2022-07-29T02:01:04.464Z,57.70
2022-07-29T02:03:32.581Z,57.63
2022-07-29T02:06:00.873Z,55.91
2022-07-29T02:08:29.056Z,56.26
2022-07-29T02:10:56.584Z,55.99
2022-07-29T02:13:25.555Z,60.24
2022-07-29T02:15:53.979Z,61.05
2022-07-29T02:18:24.997Z,60.65
2022-07-29T02:20:55.164Z,58.18
2022-07-29T02:23:24.015Z,57.64
2022-07-29T02:25:54.112Z,57.49
2022-07-29T02:28:23.512Z,58.22
2022-07-29T02:30:53.041Z,59.03
2022-07-29T02:33:21.437Z,58.41
2022-07-29T02:35:48.837Z,57.81
2022-07-29T02:38:36.135Z,57.59
2022-07-29T02:41:08.793Z,57.14
2022-07-29T02:43:36.786Z,56.21
2022-07-29T02:46:12.724Z,56.11
2022-07-29T02:49:11.342Z,56.15
2022-07-29T02:51:45.057Z,55.68
2022-07-29T02:54:22.506Z,55.15
2022-07-29T02:56:50.675Z,55.77
2022-07-29T02:59:24.185Z,55.34
2022-07-29T03:01:51.935Z,55.23
2022-07-29T03:04:21.389Z,54.77
2022-07-29T03:06:50.620Z,54.84
2022-07-29T03:09:18.268Z,55.07
2022-07-29T03:11:49.175Z,54.79
2022-07-29T03:14:21.612Z,54.81
2022-07-29T03:16:49.374Z,55.17
2022-07-29T03:19:16.423Z,55.41
2022-07-29T03:21:43.104Z,55.26
2022-07-29T03:24:10.877Z,55.19
2022-07-29T03:26:37.759Z,55.76
2022-07-29T03:29:04.277Z,55.63
2022-07-29T03:31:30.863Z,55.78
2022-07-29T03:33:58.389Z,55.12
2022-07-29T03:36:25.686Z,54.88
2022-07-29T03:38:53.061Z,55.46
2022-07-29T03:41:22.643Z,55.21
2022-07-29T03:43:50.939Z,54.97
2022-07-29T03:46:18.679Z,55.28
2022-07-29T03:48:49.581Z,55.26
2022-07-29T03:51:16.216Z,55.37
2022-07-29T03:53:43.548Z,55.35
2022-07-29T03:56:11.301Z,56.17
2022-07-29T03:58:39.104Z,56.98
2022-07-29T04:01:06.113Z,56.29
2022-07-29T04:03:32.787Z,56.03
2022-07-29T04:06:01.173Z,55.42
2022-07-29T04:08:27.693Z,55.95
2022-07-29T04:10:54.340Z,56.64
2022-07-29T04:13:21.527Z,56.77
2022-07-29T04:15:48.422Z,58.29
2022-07-29T04:18:15.244Z,56.75
2022-07-29T04:20:41.701Z,56.80
2022-07-29T04:23:08.155Z,56.61
2022-07-29T04:25:38.241Z,56.47
2022-07-29T04:28:04.929Z,58.95
2022-07-29T04:30:32.912Z,58.34
2022-07-29T04:33:01.644Z,58.73
2022-07-29T04:35:29.455Z,61.83
2022-07-29T04:37:55.977Z,60.40
2022-07-29T04:40:22.823Z,60.00
2022-07-29T04:42:49.528Z,59.78
2022-07-29T04:45:16.427Z,62.30
2022-07-29T04:47:48.852Z,64.62
2022-07-29T04:50:15.464Z,65.76
2022-07-29T04:52:41.987Z,65.32
2022-07-29T04:55:08.865Z,65.75
2022-07-29T04:57:35.328Z,65.64
2022-07-29T05:00:02.220Z,67.96
2022-07-29T05:02:28.734Z,68.36
2022-07-29T05:04:55.193Z,68.80
2022-07-29T05:07:21.767Z,69.07
2022-07-29T05:09:48.427Z,68.61
2022-07-29T05:12:14.960Z,67.69
2022-07-29T05:14:41.445Z,63.35
2022-07-29T05:17:07.995Z,66.26
2022-07-29T05:19:34.463Z,64.44
2022-07-29T05:22:06.421Z,62.09
2022-07-29T05:24:32.981Z,60.82
2022-07-29T05:26:59.509Z,58.99
2022-07-29T05:29:44.774Z,58.39
2022-07-29T05:32:13.700Z,58.81
2022-07-29T05:34:50.467Z,59.12
2022-07-29T05:37:20.212Z,57.59
2022-07-29T05:39:50.481Z,58.12
2022-07-29T05:42:23.029Z,57.92
2022-07-29T05:44:49.557Z,57.06
2022-07-29T05:47:16.883Z,57.11
2022-07-29T05:49:43.388Z,56.71
2022-07-29T05:52:09.934Z,56.98
2022-07-29T05:54:36.808Z,56.33
2022-07-29T05:57:04.290Z,56.61
2022-07-29T05:59:30.957Z,57.28
2022-07-29T06:01:58.434Z,57.00
2022-07-29T06:04:25.337Z,57.32
2022-07-29T06:06:52.063Z,57.23
2022-07-29T06:09:18.614Z,57.86
2022-07-29T06:11:45.079Z,58.21
2022-07-29T06:14:12.047Z,58.22
2022-07-29T06:16:38.707Z,58.29
2022-07-29T06:19:05.520Z,58.39
2022-07-29T06:21:32.096Z,59.03
2022-07-29T06:23:58.645Z,59.24
2022-07-29T06:26:30.348Z,60.58
2022-07-29T06:28:57.399Z,59.96
2022-07-29T06:31:24.047Z,61.11
2022-07-29T06:33:50.685Z,63.09
2022-07-29T06:36:17.188Z,64.92
2022-07-29T06:38:49.527Z,66.10
2022-07-29T06:41:18.875Z,66.57
2022-07-29T06:43:52.065Z,66.41
2022-07-29T06:46:22.453Z,66.21
2022-07-29T06:48:49.940Z,66.23
2022-07-29T06:51:17.393Z,66.05
2022-07-29T06:53:59.076Z,65.74
2022-07-29T06:56:28.618Z,68.15
2022-07-29T06:58:55.237Z,69.79
2022-07-29T07:01:21.902Z,68.11
2022-07-29T07:03:48.991Z,69.06
2022-07-29T07:06:15.663Z,68.87
2022-07-29T07:08:42.145Z,70.30
2022-07-29T07:11:09.384Z,71.57
2022-07-29T07:13:36.832Z,71.54
2022-07-29T07:16:03.882Z,71.03
2022-07-29T07:18:30.377Z,70.84
2022-07-29T07:20:57.855Z,70.97
2022-07-29T07:23:24.884Z,70.78
2022-07-29T07:25:52.258Z,70.13
2022-07-29T07:28:18.785Z,68.12
2022-07-29T07:30:51.264Z,67.87
2022-07-29T07:33:17.839Z,67.44
2022-07-29T07:35:45.133Z,67.26
2022-07-29T07:38:11.659Z,65.29
2022-07-29T07:40:38.241Z,64.06
2022-07-29T07:43:04.876Z,64.41
2022-07-29T07:45:33.489Z,62.50
2022-07-29T07:48:00.231Z,61.56
2022-07-29T07:50:26.956Z,61.24
2022-07-29T07:52:58.599Z,60.48
2022-07-29T07:55:26.815Z,61.32
2022-07-29T07:57:54.408Z,62.48
2022-07-29T08:00:22.926Z,62.54
2022-07-29T08:02:50.791Z,61.01
2022-07-29T08:05:20.282Z,61.33
2022-07-29T08:07:47.841Z,61.22
2022-07-29T08:10:39.644Z,61.05
2022-07-29T08:13:11.840Z,61.28
2022-07-29T08:15:39.968Z,61.73
2022-07-29T08:18:08.913Z,61.37
2022-07-29T08:20:36.888Z,61.23
2022-07-29T08:23:05.200Z,61.13
2022-07-29T08:25:31.921Z,61.35
2022-07-29T08:27:58.518Z,61.64
2022-07-29T08:30:25.319Z,61.32
2022-07-29T08:32:55.093Z,61.33
2022-07-29T08:35:22.980Z,60.46
2022-07-29T08:37:49.844Z,59.58
2022-07-29T08:40:16.749Z,60.29
2022-07-29T08:42:43.621Z,58.04
2022-07-29T08:45:10.719Z,57.31
2022-07-29T08:47:42.760Z,56.56
2022-07-29T08:50:10.427Z,55.27
2022-07-29T08:52:40.752Z,54.49
2022-07-29T08:55:09.845Z,54.77
2022-07-29T08:57:37.112Z,53.76
2022-07-29T09:00:11.634Z,52.44
2022-07-29T09:02:46.996Z,51.35
2022-07-29T09:05:15.237Z,51.17
2022-07-29T09:07:44.165Z,51.60
2022-07-29T09:10:11.135Z,51.48
2022-07-29T09:12:38.362Z,51.11
2022-07-29T09:15:05.486Z,51.91
2022-07-29T09:17:43.331Z,53.29
2022-07-29T09:20:15.364Z,53.11
2022-07-29T09:22:42.404Z,52.99
2022-07-29T09:25:09.436Z,51.78
2022-07-29T09:27:36.569Z,50.14
2022-07-29T09:30:11.448Z,49.80
2022-07-29T09:32:59.116Z,48.58
2022-07-29T09:35:27.377Z,49.26
2022-07-29T09:37:54.036Z,48.88
2022-07-29T09:40:25.813Z,48.50
2022-07-29T09:42:54.114Z,47.99
2022-07-29T09:45:31.699Z,48.58
2022-07-29T09:48:03.944Z,50.38
2022-07-29T09:50:41.086Z,50.03
2022-07-29T09:53:10.205Z,48.43
2022-07-29T09:55:55.016Z,48.63
2022-07-29T09:58:23.343Z,48.67
2022-07-29T10:00:52.031Z,47.35
2022-07-29T10:03:19.186Z,47.88
2022-07-29T10:05:46.669Z,47.70
2022-07-29T10:08:13.591Z,45.88
2022-07-29T10:10:43.367Z,46.70
2022-07-29T10:13:15.806Z,46.01
2022-07-29T10:15:46.035Z,45.73
2022-07-29T10:18:14.206Z,43.76
2022-07-29T10:20:41.088Z,45.25
2022-07-29T10:23:07.583Z,43.64
2022-07-29T10:25:34.307Z,43.13
2022-07-29T10:28:00.961Z,42.54
2022-07-29T10:30:27.694Z,42.23
2022-07-29T10:33:28.603Z,41.70
2022-07-29T10:36:32.677Z,40.60
2022-07-29T10:39:08.191Z,40.17
2022-07-29T10:41:43.854Z,40.51
2022-07-29T10:44:23.143Z,40.94
2022-07-29T10:46:51.510Z,40.77
2022-07-29T10:49:27.225Z,40.00
2022-07-29T10:52:05.979Z,40.50
2022-07-29T10:54:45.983Z,39.88
2022-07-29T10:57:15.499Z,37.50
2022-07-29T10:59:44.112Z,38.04
2022-07-29T11:02:43.963Z,39.41
2022-07-29T11:05:20.396Z,40.72
2022-07-29T11:08:20.105Z,41.73
2022-07-29T11:10:49.177Z,41.01
2022-07-29T11:13:44.225Z,40.19
2022-07-29T11:16:11.262Z,38.21
2022-07-29T11:19:13.160Z,37.48
2022-07-29T11:21:55.302Z,36.17
2022-07-29T11:24:31.927Z,36.19
2022-07-29T11:27:20.918Z,35.66
2022-07-29T11:29:58.869Z,35.19
2022-07-29T11:32:38.406Z,35.99
2022-07-29T11:35:37.132Z,36.88
2022-07-29T11:38:27.644Z,36.81
2022-07-29T11:41:25.928Z,36.75
2022-07-29T11:43:59.265Z,36.92
2022-07-29T11:46:51.820Z,37.04
2022-07-29T11:49:31.966Z,37.93
2022-07-29T11:52:02.491Z,36.75
2022-07-29T11:54:33.555Z,36.29
2022-07-29T11:57:20.101Z,36.80
2022-07-29T11:59:48.694Z,34.25
2022-07-29T12:02:38.176Z,35.26
2022-07-29T12:05:10.592Z,34.86
2022-07-29T12:07:49.875Z,35.68
2022-07-29T12:10:19.838Z,33.79
2022-07-29T12:12:56.192Z,33.47
2022-07-29T12:15:39.486Z,32.33
2022-07-29T12:18:18.405Z,32.48
2022-07-29T12:20:46.352Z,33.50
2022-07-29T12:23:13.978Z,32.37
2022-07-29T12:25:49.945Z,32.01
2022-07-29T12:28:27.487Z,31.88
2022-07-29T12:30:54.884Z,31.08
2022-07-29T12:33:29.572Z,30.56
2022-07-29T12:36:09.420Z,31.65
2022-07-29T12:38:41.477Z,31.99
2022-07-29T12:41:08.060Z,32.09
2022-07-29T12:43:34.645Z,31.72
2022-07-29T12:46:13.750Z,31.48
2022-07-29T12:48:42.243Z,31.70
2022-07-29T12:51:10.060Z,31.57
2022-07-29T12:53:37.778Z,31.32
2022-07-29T12:56:20.555Z,30.49
2022-07-29T12:58:51.098Z,29.71
2022-07-29T13:01:21.114Z,30.30
2022-07-29T13:03:59.792Z,30.45
2022-07-29T13:06:35.896Z,30.88
2022-07-29T13:09:10.531Z,30.51
2022-07-29T13:12:07.170Z,29.19
2022-07-29T13:14:34.791Z,28.90
2022-07-29T13:17:06.052Z,28.22
2022-07-29T13:19:37.195Z,28.07
2022-07-29T13:22:04.284Z,27.05
2022-07-29T13:24:31.099Z,26.33
2022-07-29T13:26:57.541Z,26.21
2022-07-29T13:29:26.549Z,26.87
2022-07-29T13:31:55.721Z,25.16
2022-07-29T13:34:23.304Z,26.71
2022-07-29T13:36:49.735Z,26.00
2022-07-29T13:39:16.390Z,27.28
2022-07-29T13:41:43.365Z,27.18
2022-07-29T13:44:09.922Z,27.45
2022-07-29T13:46:36.372Z,27.93
2022-07-29T13:49:06.667Z,30.98
2022-07-29T13:51:33.418Z,29.76
2022-07-29T13:53:59.907Z,31.27
2022-07-29T13:56:27.112Z,31.54
2022-07-29T13:58:53.526Z,30.15
2022-07-29T14:01:20.096Z,29.71
2022-07-29T14:03:46.656Z,29.45
2022-07-29T14:06:14.189Z,29.52
2022-07-29T14:08:41.111Z,30.64
2022-07-29T14:11:07.653Z,30.19
2022-07-29T14:13:34.110Z,30.85
2022-07-29T14:16:00.642Z,30.26
2022-07-29T14:18:27.104Z,29.98
2022-07-29T14:20:53.824Z,30.91
2022-07-29T14:23:20.513Z,31.23
2022-07-29T14:25:47.229Z,30.97
2022-07-29T14:28:16.044Z,31.31
2022-07-29T14:30:43.207Z,30.31
2022-07-29T14:33:09.865Z,30.31
2022-07-29T14:35:36.368Z,30.78
2022-07-29T14:38:03.063Z,29.85
2022-07-29T14:40:29.710Z,31.00
2022-07-29T14:42:56.323Z,31.48
2022-07-29T14:45:23.942Z,31.96
2022-07-29T14:47:51.656Z,30.80
2022-07-29T14:50:31.136Z,29.06
2022-07-29T14:52:59.070Z,29.46
2022-07-29T14:55:25.669Z,28.90
2022-07-29T14:57:55.431Z,27.74
2022-07-29T15:00:25.272Z,26.98
2022-07-29T15:03:01.955Z,28.28
2022-07-29T15:05:29.244Z,29.71
2022-07-29T15:07:55.799Z,28.46
2022-07-29T15:10:22.497Z,28.16
2022-07-29T15:12:51.296Z,27.91
2022-07-29T15:15:17.773Z,28.50
2022-07-29T15:17:44.318Z,29.13
2022-07-29T15:20:12.604Z,28.30
2022-07-29T15:22:39.341Z,28.28
2022-07-29T15:25:06.699Z,29.57
2022-07-29T15:27:33.243Z,28.89
2022-07-29T15:29:59.786Z,29.61
2022-07-29T15:32:28.481Z,29.75
2022-07-29T15:34:55.017Z,29.86
2022-07-29T15:37:21.687Z,30.01
2022-07-29T15:39:48.372Z,30.17
2022-07-29T15:42:14.840Z,31.58
2022-07-29T15:44:44.414Z,31.92
2022-07-29T15:47:11.007Z,30.56
2022-07-29T15:49:48.405Z,30.86
2022-07-29T15:52:24.755Z,31.21
2022-07-29T15:54:53.961Z,31.63
2022-07-29T15:57:20.520Z,31.52
2022-07-29T15:59:47.034Z,31.44
2022-07-29T16:02:13.584Z,32.81
2022-07-29T16:04:40.205Z,32.60
2022-07-29T16:07:09.315Z,32.05
2022-07-29T16:09:35.810Z,33.08
2022-07-29T16:12:02.551Z,33.03
2022-07-29T16:14:32.165Z,33.85
2022-07-29T16:16:59.083Z,34.17
2022-07-29T16:19:25.803Z,34.26
2022-07-29T16:21:53.499Z,34.28
2022-07-29T16:24:22.678Z,34.10
2022-07-29T16:26:50.247Z,34.60
2022-07-29T16:29:18.538Z,33.39
2022-07-29T16:31:45.130Z,32.78
2022-07-29T16:34:11.576Z,34.71
2022-07-29T16:36:38.040Z,36.02
2022-07-29T16:39:05.595Z,41.74
2022-07-29T16:41:32.288Z,46.88
2022-07-29T16:43:59.120Z,51.13
2022-07-29T16:46:25.867Z,64.01
2022-07-29T16:48:52.467Z,64.19
2022-07-29T16:51:19.239Z,65.68
2022-07-29T16:53:45.839Z,76.71
2022-07-29T16:56:16.441Z,79.71
2022-07-29T16:58:43.964Z,78.61
2022-07-29T17:01:11.297Z,84.72
2022-07-29T17:04:00.264Z,87.61
2022-07-29T17:06:27.605Z,81.47
2022-07-29T17:08:54.056Z,84.92
2022-07-29T17:11:20.773Z,87.58
2022-07-29T17:13:47.225Z,84.77
2022-07-29T17:16:14.894Z,86.57
2022-07-29T17:18:41.327Z,84.81
2022-07-29T17:21:07.793Z,84.96
2022-07-29T17:23:34.234Z,85.02
2022-07-29T17:26:00.983Z,86.65
2022-07-29T17:28:27.697Z,85.18
2022-07-29T17:30:54.270Z,84.95
2022-07-29T17:33:23.040Z,88.81
2022-07-29T17:36:08.447Z,85.79
2022-07-29T17:38:35.022Z,89.70
2022-07-29T17:41:01.600Z,90.21
2022-07-29T17:43:34.377Z,94.26
2022-07-29T17:46:00.999Z,95.23
2022-07-29T17:48:27.532Z,93.30
2022-07-29T17:50:54.128Z,94.50
2022-07-29T17:53:20.775Z,97.11
2022-07-29T17:55:48.506Z,99.33
2022-07-29T17:58:15.920Z,99.53
2022-07-29T18:00:42.713Z,100.00
2022-07-29T18:03:09.719Z,99.58
2022-07-29T18:05:37.004Z,100.00
2022-07-29T18:08:03.879Z,100.00
2022-07-29T18:10:30.359Z,100.00
2022-07-29T18:12:56.944Z,99.21
2022-07-29T18:15:23.451Z,100.00
2022-07-29T18:17:56.993Z,100.00
2022-07-29T18:20:25.692Z,100.00
2022-07-29T18:22:52.221Z,100.00
2022-07-29T18:25:18.788Z,100.00
2022-07-29T18:27:45.291Z,100.00
2022-07-29T18:30:12.016Z,100.00
2022-07-29T18:32:39.545Z,100.00
2022-07-29T18:35:06.699Z,100.00
2022-07-29T18:38:01.639Z,100.00
2022-07-29T18:40:23.724Z,100.00
2022-07-29T18:42:50.144Z,100.00
2022-07-29T18:45:19.090Z,100.00
2022-07-29T18:47:47.547Z,100.00
2022-07-29T18:50:14.603Z,100.00
2022-07-29T18:52:41.427Z,99.99
2022-07-29T18:55:08.629Z,100.00
2022-07-29T18:57:56.192Z,100.00
2022-07-29T19:00:22.479Z,99.41
2022-07-29T19:02:49.760Z,99.05
2022-07-29T19:05:16.605Z,98.88
2022-07-29T19:07:43.058Z,100.00
2022-07-29T19:10:09.804Z,100.00
2022-07-29T19:12:36.359Z,100.00
2022-07-29T19:15:03.506Z,100.00
2022-07-29T19:17:30.376Z,100.00
2022-07-29T19:19:57.117Z,100.00
2022-07-29T19:22:23.754Z,100.00
2022-07-29T19:24:50.902Z,100.00
2022-07-29T19:27:17.584Z,100.00
2022-07-29T19:29:44.476Z,100.00
2022-07-29T19:32:11.864Z,100.00
2022-07-29T19:34:38.418Z,100.00
2022-07-29T19:37:05.251Z,100.00
2022-07-29T19:39:35.539Z,100.00
2022-07-29T19:42:03.520Z,100.00
2022-07-29T19:44:30.262Z,100.00
2022-07-29T19:46:59.349Z,100.00
2022-07-29T19:49:26.071Z,100.00
2022-07-29T19:51:53.997Z,100.00
2022-07-29T19:54:20.765Z,100.00
2022-07-29T19:56:47.284Z,100.00
2022-07-29T19:59:16.311Z,100.00
2022-07-29T20:01:42.849Z,100.00
2022-07-29T20:04:10.735Z,100.00
2022-07-29T20:06:37.467Z,100.00
2022-07-29T20:09:05.663Z,100.00
2022-07-29T20:11:36.693Z,100.00
2022-07-29T20:14:05.334Z,100.00
2022-07-29T20:16:32.349Z,100.00
2022-07-29T20:18:58.973Z,100.00
2022-07-29T20:21:26.731Z,100.00
2022-07-29T20:23:54.087Z,100.00
2022-07-29T20:26:20.539Z,100.00
2022-07-29T20:28:49.457Z,100.00
2022-07-29T20:31:16.786Z,100.00
2022-07-29T20:33:43.375Z,100.00
2022-07-29T20:36:09.844Z,100.00
2022-07-29T20:38:36.489Z,100.00
2022-07-29T20:41:03.029Z,100.00
2022-07-29T20:43:29.528Z,100.00
2022-07-29T20:45:56.145Z,100.00
2022-07-29T20:48:22.677Z,100.00
2022-07-29T20:50:49.312Z,100.00
2022-07-29T20:53:16.641Z,100.00
2022-07-29T20:55:43.437Z,100.00
2022-07-29T20:58:09.964Z,100.00
2022-07-29T21:00:36.980Z,100.00
2022-07-29T21:03:03.726Z,100.00
2022-07-29T21:05:31.352Z,100.00
2022-07-29T21:07:58.377Z,100.00
2022-07-29T21:10:25.616Z,100.00
2022-07-29T21:12:52.142Z,100.00
2022-07-29T21:15:20.699Z,100.00
2022-07-29T21:17:48.151Z,100.00
2022-07-29T21:20:17.562Z,100.00
2022-07-29T21:22:44.990Z,100.00
2022-07-29T21:25:12.128Z,100.00
2022-07-29T21:27:57.128Z,100.00
2022-07-29T21:30:23.583Z,100.00
2022-07-29T21:32:50.214Z,100.00
2022-07-29T21:35:35.749Z,100.00
2022-07-29T21:38:03.515Z,100.00
2022-07-29T21:40:30.368Z,100.00
2022-07-29T21:42:56.907Z,100.00
2022-07-29T21:45:23.680Z,100.00
2022-07-29T21:47:50.123Z,100.00
2022-07-29T21:50:16.703Z,100.00
2022-07-29T21:52:43.211Z,100.00
2022-07-29T21:55:11.448Z,100.00
2022-07-29T21:57:38.190Z,100.00
2022-07-29T22:00:07.744Z,100.00
2022-07-29T22:02:39.363Z,100.00
2022-07-29T22:05:05.976Z,100.00
2022-07-29T22:07:56.375Z,100.00
2022-07-29T22:10:19.431Z,100.00
2022-07-29T22:12:46.208Z,100.00
2022-07-29T22:15:12.709Z,100.00
2022-07-29T22:17:40.861Z,100.00
2022-07-29T22:20:07.855Z,100.00
2022-07-29T22:22:34.344Z,100.00
2022-07-29T22:25:00.907Z,100.00
2022-07-29T22:27:27.450Z,100.00
2022-07-29T22:29:54.179Z,100.00
2022-07-29T22:32:20.658Z,100.00
2022-07-29T22:34:47.080Z,100.00
2022-07-29T22:37:13.620Z,100.00
2022-07-29T22:39:40.139Z,100.00
2022-07-29T22:42:06.771Z,100.00
2022-07-29T22:44:33.357Z,100.00
2022-07-29T22:47:00.220Z,100.00
2022-07-29T22:49:26.931Z,100.00
2022-07-29T22:51:53.396Z,100.00
2022-07-29T22:54:19.816Z,100.00
2022-07-29T22:56:46.297Z,100.00
2022-07-29T22:59:12.733Z,100.00
2022-07-29T23:01:39.284Z,100.00
2022-07-29T23:04:06.523Z,100.00
2022-07-29T23:06:33.960Z,100.00
2022-07-29T23:09:00.437Z,100.00
2022-07-29T23:11:26.910Z,100.00
2022-07-29T23:13:53.365Z,100.00
2022-07-29T23:16:26.583Z,100.00
2022-07-29T23:18:54.052Z,100.00
2022-07-29T23:21:20.883Z,100.00
2022-07-29T23:23:48.415Z,100.00
2022-07-29T23:26:16.894Z,100.00
2022-07-29T23:28:44.902Z,100.00
2022-07-29T23:31:13.316Z,100.00
2022-07-29T23:33:41.727Z,100.00
2022-07-29T23:36:09.042Z,100.00
2022-07-29T23:38:39.081Z,100.00
2022-07-29T23:41:08.871Z,100.00
2022-07-29T23:43:38.516Z,100.00
2022-07-29T23:46:05.167Z,100.00
2022-07-29T23:48:33.179Z,100.00
2022-07-29T23:51:01.026Z,100.00
2022-07-29T23:53:28.292Z,100.00
2022-07-29T23:55:55.433Z,100.00
2022-07-29T23:58:22.008Z,100.00
